sensor_id;sensor_type;location;lat;lon;timestamp;P1;durP1;ratioP1;P2;durP2;ratioP2
40929;SDS011;26659;47.962;21.652;2022-08-23T19:14:43;10.35;;;2.65;;
40929;SDS011;26659;47.962;21.652;2022-08-23T19:17:08;10.80;;;2.30;;
40929;SDS011;26659;47.962;21.652;2022-08-23T19:19:34;18.30;;;3.83;;
40929;SDS011;26659;47.962;21.652;2022-08-23T19:21:59;9.55;;;3.10;;
40929;SDS011;26659;47.962;21.652;2022-08-23T19:24:25;8.70;;;3.33;;
40929;SDS011;26659;47.962;21.652;2022-08-23T19:26:51;7.65;;;2.88;;
40929;SDS011;26659;47.962;21.652;2022-08-23T19:29:17;12.50;;;3.65;;
40929;SDS011;26659;47.962;21.652;2022-08-23T19:31:44;13.82;;;3.45;;
40929;SDS011;26659;47.962;21.652;2022-08-23T19:34:12;8.20;;;2.97;;
40929;SDS011;26659;47.962;21.652;2022-08-23T19:36:39;9.77;;;4.18;;
40929;SDS011;26659;47.962;21.652;2022-08-23T19:39:05;10.48;;;3.78;;
40929;SDS011;26659;47.962;21.652;2022-08-23T19:41:32;9.45;;;3.75;;
40929;SDS011;26659;47.962;21.652;2022-08-23T19:43:59;9.77;;;4.20;;
40929;SDS011;26659;47.962;21.652;2022-08-23T19:46:24;8.50;;;3.55;;
40929;SDS011;26659;47.962;21.652;2022-08-23T19:48:50;12.45;;;3.53;;
40929;SDS011;26659;47.962;21.652;2022-08-23T19:51:16;8.18;;;3.72;;
40929;SDS011;26659;47.962;21.652;2022-08-23T19:53:42;8.45;;;3.35;;
40929;SDS011;26659;47.962;21.652;2022-08-23T19:59:10;8.73;;;3.13;;
40929;SDS011;26659;47.962;21.652;2022-08-23T20:01:38;9.48;;;2.53;;
40929;SDS011;26659;47.962;21.652;2022-08-23T20:04:04;6.65;;;2.03;;
40929;SDS011;26659;47.962;21.652;2022-08-23T20:06:30;6.97;;;2.13;;
40929;SDS011;26659;47.962;21.652;2022-08-23T20:08:56;8.40;;;1.60;;
40929;SDS011;26659;47.962;21.652;2022-08-23T20:11:22;10.75;;;1.80;;
40929;SDS011;26659;47.962;21.652;2022-08-23T20:13:47;12.10;;;1.50;;
40929;SDS011;26659;47.962;21.652;2022-08-23T20:16:14;3.55;;;1.13;;
40929;SDS011;26659;47.962;21.652;2022-08-23T20:18:40;8.75;;;2.00;;
40929;SDS011;26659;47.962;21.652;2022-08-23T20:21:06;6.13;;;1.10;;
40929;SDS011;26659;47.962;21.652;2022-08-23T20:23:32;3.85;;;0.85;;
40929;SDS011;26659;47.962;21.652;2022-08-23T20:26:16;9.27;;;0.90;;
40929;SDS011;26659;47.962;21.652;2022-08-23T20:28:42;7.18;;;0.80;;
40929;SDS011;26659;47.962;21.652;2022-08-23T20:31:18;7.75;;;0.80;;
40929;SDS011;26659;47.962;21.652;2022-08-23T20:33:46;3.70;;;1.02;;
40929;SDS011;26659;47.962;21.652;2022-08-23T20:36:12;4.45;;;0.85;;
40929;SDS011;26659;47.962;21.652;2022-08-23T20:38:38;2.85;;;0.68;;
40929;SDS011;26659;47.962;21.652;2022-08-23T20:41:04;3.92;;;0.80;;
40929;SDS011;26659;47.962;21.652;2022-08-23T20:43:30;7.10;;;0.70;;
40929;SDS011;26659;47.962;21.652;2022-08-23T20:45:56;5.68;;;0.80;;
40929;SDS011;26659;47.962;21.652;2022-08-23T20:48:23;4.38;;;0.70;;
40929;SDS011;26659;47.962;21.652;2022-08-23T20:50:49;1.15;;;0.50;;
40929;SDS011;26659;47.962;21.652;2022-08-23T20:53:14;3.08;;;1.05;;
40929;SDS011;26659;47.962;21.652;2022-08-23T20:58:06;5.45;;;0.50;;
40929;SDS011;26659;47.962;21.652;2022-08-23T21:00:31;5.60;;;0.95;;
40929;SDS011;26659;47.962;21.652;2022-08-23T21:02:57;10.55;;;0.80;;
40929;SDS011;26659;47.962;21.652;2022-08-23T21:05:23;3.20;;;0.75;;
40929;SDS011;26659;47.962;21.652;2022-08-23T21:07:48;3.22;;;0.60;;
40929;SDS011;26659;47.962;21.652;2022-08-23T21:10:14;6.05;;;0.70;;
40929;SDS011;26659;47.962;21.652;2022-08-23T21:12:40;5.57;;;1.20;;
40929;SDS011;26659;47.962;21.652;2022-08-23T21:15:05;5.93;;;0.70;;
40929;SDS011;26659;47.962;21.652;2022-08-23T21:17:32;7.20;;;0.70;;
40929;SDS011;26659;47.962;21.652;2022-08-23T21:19:58;4.55;;;0.80;;
40929;SDS011;26659;47.962;21.652;2022-08-23T21:22:23;3.53;;;0.70;;
40929;SDS011;26659;47.962;21.652;2022-08-23T21:24:48;4.60;;;0.77;;
40929;SDS011;26659;47.962;21.652;2022-08-23T21:27:14;2.08;;;0.50;;
40929;SDS011;26659;47.962;21.652;2022-08-23T21:29:40;2.83;;;0.60;;
40929;SDS011;26659;47.962;21.652;2022-08-23T21:32:05;3.15;;;0.40;;
40929;SDS011;26659;47.962;21.652;2022-08-23T21:34:31;4.43;;;0.50;;
40929;SDS011;26659;47.962;21.652;2022-08-23T21:36:57;2.77;;;0.73;;
40929;SDS011;26659;47.962;21.652;2022-08-23T21:39:23;5.40;;;0.50;;
40929;SDS011;26659;47.962;21.652;2022-08-23T21:41:48;4.65;;;0.50;;
40929;SDS011;26659;47.962;21.652;2022-08-23T21:44:16;5.85;;;0.60;;
40929;SDS011;26659;47.962;21.652;2022-08-23T21:46:44;1.13;;;0.60;;
40929;SDS011;26659;47.962;21.652;2022-08-23T21:49:10;2.00;;;0.52;;
40929;SDS011;26659;47.962;21.652;2022-08-23T21:51:36;2.83;;;0.77;;
40929;SDS011;26659;47.962;21.652;2022-08-23T21:54:05;1.23;;;0.47;;
40929;SDS011;26659;47.962;21.652;2022-08-23T21:56:33;2.47;;;0.55;;
40929;SDS011;26659;47.962;21.652;2022-08-23T21:59:00;2.55;;;0.50;;
40929;SDS011;26659;47.962;21.652;2022-08-23T22:01:28;3.22;;;0.57;;
40929;SDS011;26659;47.962;21.652;2022-08-23T22:03:55;2.80;;;0.60;;
40929;SDS011;26659;47.962;21.652;2022-08-23T22:06:20;1.65;;;0.50;;
40929;SDS011;26659;47.962;21.652;2022-08-23T22:08:46;3.90;;;0.63;;
40929;SDS011;26659;47.962;21.652;2022-08-23T22:11:12;2.67;;;0.40;;
40929;SDS011;26659;47.962;21.652;2022-08-23T22:13:39;4.82;;;0.70;;
40929;SDS011;26659;47.962;21.652;2022-08-23T22:16:05;4.38;;;0.70;;
40929;SDS011;26659;47.962;21.652;2022-08-23T22:18:31;2.40;;;0.63;;
40929;SDS011;26659;47.962;21.652;2022-08-23T22:20:57;2.22;;;0.60;;
40929;SDS011;26659;47.962;21.652;2022-08-23T22:23:24;3.22;;;0.60;;
40929;SDS011;26659;47.962;21.652;2022-08-23T22:25:51;3.35;;;0.40;;
40929;SDS011;26659;47.962;21.652;2022-08-23T22:28:16;2.88;;;0.60;;
40929;SDS011;26659;47.962;21.652;2022-08-23T22:30:42;1.95;;;0.57;;
40929;SDS011;26659;47.962;21.652;2022-08-23T22:33:08;3.42;;;0.80;;
40929;SDS011;26659;47.962;21.652;2022-08-23T22:35:35;5.25;;;0.70;;
40929;SDS011;26659;47.962;21.652;2022-08-23T22:38:00;2.67;;;0.60;;
40929;SDS011;26659;47.962;21.652;2022-08-23T22:40:26;2.72;;;0.60;;
40929;SDS011;26659;47.962;21.652;2022-08-23T22:42:51;1.25;;;0.50;;
40929;SDS011;26659;47.962;21.652;2022-08-23T22:45:17;5.47;;;1.33;;
40929;SDS011;26659;47.962;21.652;2022-08-23T22:47:43;9.73;;;0.80;;
40929;SDS011;26659;47.962;21.652;2022-08-23T22:50:09;4.18;;;0.70;;
40929;SDS011;26659;47.962;21.652;2022-08-23T22:52:35;5.40;;;0.75;;
40929;SDS011;26659;47.962;21.652;2022-08-23T22:55:00;1.35;;;0.55;;
40929;SDS011;26659;47.962;21.652;2022-08-23T22:57:26;1.73;;;0.60;;
40929;SDS011;26659;47.962;21.652;2022-08-23T22:59:51;3.03;;;0.80;;
40929;SDS011;26659;47.962;21.652;2022-08-23T23:02:17;3.47;;;1.00;;
40929;SDS011;26659;47.962;21.652;2022-08-23T23:04:42;2.65;;;0.75;;
40929;SDS011;26659;47.962;21.652;2022-08-23T23:07:08;3.10;;;0.73;;
40929;SDS011;26659;47.962;21.652;2022-08-23T23:09:33;2.47;;;0.60;;
40929;SDS011;26659;47.962;21.652;2022-08-23T23:11:59;2.60;;;0.82;;
40929;SDS011;26659;47.962;21.652;2022-08-23T23:14:25;3.22;;;0.90;;
40929;SDS011;26659;47.962;21.652;2022-08-23T23:16:51;6.55;;;0.80;;
40929;SDS011;26659;47.962;21.652;2022-08-23T23:19:17;5.25;;;0.65;;
40929;SDS011;26659;47.962;21.652;2022-08-23T23:22:03;3.10;;;0.70;;
40929;SDS011;26659;47.962;21.652;2022-08-23T23:24:31;7.10;;;0.98;;
40929;SDS011;26659;47.962;21.652;2022-08-23T23:26:59;2.42;;;0.68;;
40929;SDS011;26659;47.962;21.652;2022-08-23T23:29:25;2.70;;;0.93;;
40929;SDS011;26659;47.962;21.652;2022-08-23T23:31:51;4.97;;;1.10;;
40929;SDS011;26659;47.962;21.652;2022-08-23T23:34:16;2.22;;;0.93;;
40929;SDS011;26659;47.962;21.652;2022-08-23T23:36:42;3.40;;;0.90;;
40929;SDS011;26659;47.962;21.652;2022-08-23T23:39:08;5.15;;;1.05;;
40929;SDS011;26659;47.962;21.652;2022-08-23T23:41:35;4.53;;;1.15;;
40929;SDS011;26659;47.962;21.652;2022-08-23T23:44:00;2.47;;;0.77;;
40929;SDS011;26659;47.962;21.652;2022-08-23T23:46:26;3.88;;;1.00;;
40929;SDS011;26659;47.962;21.652;2022-08-23T23:48:52;3.65;;;0.90;;
40929;SDS011;26659;47.962;21.652;2022-08-23T23:51:20;5.10;;;1.00;;
40929;SDS011;26659;47.962;21.652;2022-08-23T23:53:47;3.97;;;0.70;;
40929;SDS011;26659;47.962;21.652;2022-08-23T23:56:15;5.00;;;1.30;;
40929;SDS011;26659;47.962;21.652;2022-08-23T23:58:41;6.70;;;1.10;;
